Observation data for Brownfield on 11/22/2019      Previous  Date  Next       Current Mesonet Observations  Soil Data  Daily Summary Page  Observations in Plain Language
KBWS 220600Z 04007KT 04/03 A3012 RMK A01 T00410030  RH  094%=      5-min Rain = 0
KBWS 220605Z 06007KT 04/03 A3012 RMK A01 T00410030  RH  094%=      5-min Rain = 0
KBWS 220610Z 07007KT 04/03 A3012 RMK A01 T00420032  RH  094%=      5-min Rain = 0
KBWS 220615Z 07007KT 04/03 A3012 RMK A01 T00430033  RH  095%=      5-min Rain = 0
KBWS 220620Z 05008KT 04/03 A3011 RMK A01 T00430032  RH  095%=      5-min Rain = 0
KBWS 220625Z 05009KT 04/03 A3011 RMK A01 T00420031  RH  094%=      5-min Rain = 0.01
KBWS 220630Z 06008KT 04/03 A3011 RMK A01 T00420032  RH  095%=      5-min Rain = 0
KBWS 220635Z 06006KT 04/03 A3011 RMK A01 T00420033  RH  095%=      5-min Rain = 0
KBWS 220640Z 05008KT 04/03 A301 RMK A01 T00420032  RH  095%=      5-min Rain = 0
KBWS 220645Z 05009KT 04/03 A301 RMK A01 T00410031  RH  095%=      5-min Rain = 0
KBWS 220650Z 05007KT 04/03 A3011 RMK A01 T00410031  RH  095%=      5-min Rain = 0
KBWS 220655Z 03006KT 04/03 A3012 RMK A01 T00410031  RH  095%=      5-min Rain = 0
KBWS 220700Z 03007KT 04/03 A3012 RMK A01 T00410031  RH  095%=      5-min Rain = 0
KBWS 220705Z 04007KT 04/03 A3012 RMK A01 T00400031  RH  095%=      5-min Rain = 0
KBWS 220710Z 06007KT 04/03 A3011 RMK A01 T00410031  RH  095%=      5-min Rain = 0
KBWS 220715Z 07010KT 04/03 A3009 RMK A01 T00410032  RH  095%=      5-min Rain = 0
KBWS 220720Z 07009KT 04/03 A3008 RMK A01 T00410032  RH  096%=      5-min Rain = 0
KBWS 220725Z 07008KT 04/03 A3009 RMK A01 T00390031  RH  096%=      5-min Rain = 0
KBWS 220730Z 07007KT 04/03 A3009 RMK A01 T00390031  RH  096%=      5-min Rain = 0
KBWS 220735Z 07007KT 04/03 A3008 RMK A01 T00380030  RH  096%=      5-min Rain = 0
KBWS 220740Z 08008KT 04/03 A3007 RMK A01 T00360029  RH  096%=      5-min Rain = 0
KBWS 220745Z 08008KT 04/03 A3007 RMK A01 T00360029  RH  097%=      5-min Rain = 0
KBWS 220750Z 09008KT 04/03 A3007 RMK A01 T00360030  RH  097%=      5-min Rain = 0
KBWS 220755Z 09009KT 04/03 A3006 RMK A01 T00370030  RH  097%=      5-min Rain = 0
KBWS 220800Z 09008KT 04/03 A3007 RMK A01 T00370030  RH  097%=      5-min Rain = 0
KBWS 220805Z 08006KT 04/03 A3007 RMK A01 T00370031  RH  097%=      5-min Rain = 0
KBWS 220810Z 08006KT 04/03 A3007 RMK A01 T00370031  RH  097%=      5-min Rain = 0
KBWS 220815Z 08006KT 04/03 A3008 RMK A01 T00370031  RH  097%=      5-min Rain = 0
KBWS 220820Z 08006KT 04/03 A3008 RMK A01 T00370031  RH  097%=      5-min Rain = 0
KBWS 220825Z 08006KT 04/03 A3008 RMK A01 T00370030  RH  097%=      5-min Rain = 0
KBWS 220830Z 08005KT 04/03 A3009 RMK A01 T00360030  RH  097%=      5-min Rain = 0
KBWS 220835Z 07003KT 04/03 A3009 RMK A01 T00360030  RH  097%=      5-min Rain = 0
KBWS 220840Z 05002KT 04/03 A301 RMK A01 T00360029  RH  097%=      5-min Rain = 0
KBWS 220845Z 03000KT 04/03 A3011 RMK A01 T00350029  RH  097%=      5-min Rain = 0
KBWS 220850Z 28001KT 03/03 A3011 RMK A01 T00330026  RH  097%=      5-min Rain = 0
KBWS 220855Z 26003KT 03/02 A3012 RMK A01 T00290023  RH  097%=      5-min Rain = 0
KBWS 220900Z 26004KT 03/02 A3013 RMK A01 T00290023  RH  098%=      5-min Rain = 0
KBWS 220905Z 27004KT 03/03 A3013 RMK A01 T00310026  RH  098%=      5-min Rain = 0
KBWS 220910Z 30003KT 03/03 A3012 RMK A01 T00330028  RH  098%=      5-min Rain = 0
KBWS 220915Z 34004KT 04/03 A3012 RMK A01 T00350030  RH  098%=      5-min Rain = 0
KBWS 220920Z 35002KT 04/03 A3011 RMK A01 T00360030  RH  098%=      5-min Rain = 0
KBWS 220925Z 34005KT 04/03 A3011 RMK A01 T00360030  RH  098%=      5-min Rain = 0
KBWS 220930Z 33009KT 04/03 A3012 RMK A01 T00360030  RH  098%=      5-min Rain = 0
KBWS 220935Z 33009KT 04/03 A3012 RMK A01 T00370031  RH  097%=      5-min Rain = 0
KBWS 220940Z 32008KT 04/03 A3013 RMK A01 T00380031  RH  097%=      5-min Rain = 0
KBWS 220945Z 32007KT 04/03 A3013 RMK A01 T00380031  RH  097%=      5-min Rain = 0
KBWS 220950Z 33009KT 04/03 A3013 RMK A01 T00370030  RH  097%=      5-min Rain = 0
KBWS 220955Z 34007KT 04/03 A3013 RMK A01 T00380030  RH  096%=      5-min Rain = 0
KBWS 221000Z 34008KT 04/03 A3012 RMK A01 T00380029  RH  096%=      5-min Rain = 0
KBWS 221005Z 35008KT 04/03 A3012 RMK A01 T00370028  RH  095%=      5-min Rain = 0
KBWS 221010Z 34007KT 04/03 A3013 RMK A01 T00380028  RH  095%=      5-min Rain = 0
KBWS 221015Z 35007KT 04/03 A3013 RMK A01 T00380028  RH  095%=      5-min Rain = 0
KBWS 221020Z 35007KT 04/03 A3013 RMK A01 T00380028  RH  095%=      5-min Rain = 0
KBWS 221025Z 35008KT 04/03 A3012 RMK A01 T00370027  RH  095%=      5-min Rain = 0
KBWS 221030Z 36007KT 04/03 A3012 RMK A01 T00360027  RH  096%=      5-min Rain = 0
KBWS 221035Z 00009KT 04/03 A3012 RMK A01 T00360028  RH  096%=      5-min Rain = 0
KBWS 221040Z 34008KT 04/03 A3012 RMK A01 T00360028  RH  097%=      5-min Rain = 0
KBWS 221045Z 33010KT 04/03 A3013 RMK A01 T00350028  RH  097%=      5-min Rain = 0
KBWS 221050Z 33010KT 04/03 A3014 RMK A01 T00350027  RH  097%=      5-min Rain = 0
KBWS 221055Z 34008KT 03/03 A3014 RMK A01 T00340026  RH  096%=      5-min Rain = 0
KBWS 221100Z 34010KT 04/03 A3014 RMK A01 T00350026  RH  096%=      5-min Rain = 0
KBWS 221105Z 34009KT 04/03 A3014 RMK A01 T00350026  RH  095%=      5-min Rain = 0
KBWS 221110Z 35008KT 04/03 A3014 RMK A01 T00350025  RH  095%=      5-min Rain = 0
KBWS 221115Z 36009KT 03/02 A3014 RMK A01 T00340024  RH  095%=      5-min Rain = 0
KBWS 221120Z 36009KT 04/03 A3014 RMK A01 T00350025  RH  095%=      5-min Rain = 0
KBWS 221125Z 34009KT 04/03 A3014 RMK A01 T00350025  RH  094%=      5-min Rain = 0
KBWS 221130Z 33008KT 04/02 A3014 RMK A01 T00350024  RH  094%=      5-min Rain = 0
KBWS 221135Z 33008KT 04/03 A3014 RMK A01 T00360025  RH  094%=      5-min Rain = 0
KBWS 221140Z 34007G12KT 04/02 A3014 RMK A01 T00350023  RH  093%=      5-min Rain = 0
KBWS 221145Z 34007KT 04/02 A3014 RMK A01 T00360023  RH  093%=      5-min Rain = 0
KBWS 221150Z 34009KT 04/02 A3014 RMK A01 T00360023  RH  093%=      5-min Rain = 0
KBWS 221155Z 36007KT 04/02 A3014 RMK A01 T00360023  RH  093%=      5-min Rain = 0
KBWS 221200Z 00008KT 04/02 A3014 RMK A01 T00360023  RH  093%=      5-min Rain = 0
KBWS 221205Z 35009KT 04/02 A3014 RMK A01 T00360023  RH  093%=      5-min Rain = 0
KBWS 221210Z 35007KT 04/02 A3014 RMK A01 T00370023  RH  093%=      5-min Rain = 0
KBWS 221215Z 36005KT 04/02 A3014 RMK A01 T00370024  RH  093%=      5-min Rain = 0
KBWS 221220Z 01007KT 04/03 A3014 RMK A01 T00370025  RH  093%=      5-min Rain = 0
KBWS 221225Z 00006KT 04/03 A3015 RMK A01 T00370025  RH  094%=      5-min Rain = 0
KBWS 221230Z 00008KT 04/03 A3015 RMK A01 T00370025  RH  094%=      5-min Rain = 0
KBWS 221235Z 35009KT 04/03 A3015 RMK A01 T00360025  RH  094%=      5-min Rain = 0
KBWS 221240Z 35008KT 04/03 A3015 RMK A01 T00350025  RH  094%=      5-min Rain = 0
KBWS 221245Z 35007KT 04/03 A3015 RMK A01 T00350025  RH  095%=      5-min Rain = 0
KBWS 221250Z 00007KT 04/03 A3015 RMK A01 T00350025  RH  095%=      5-min Rain = 0
KBWS 221255Z 00008KT 04/03 A3015 RMK A01 T00350025  RH  095%=      5-min Rain = 0
KBWS 221300Z 36007KT 04/03 A3015 RMK A01 T00350025  RH  094%=      5-min Rain = 0
KBWS 221305Z 35007KT 04/03 A3015 RMK A01 T00360025  RH  094%=      5-min Rain = 0
KBWS 221310Z 34007KT 04/02 A3015 RMK A01 T00350024  RH  094%=      5-min Rain = 0
KBWS 221315Z 34006KT 04/02 A3016 RMK A01 T00350023  RH  094%=      5-min Rain = 0
KBWS 221320Z 34007KT 04/02 A3016 RMK A01 T00350024  RH  094%=      5-min Rain = 0
KBWS 221325Z 35006KT 04/02 A3016 RMK A01 T00350024  RH  094%=      5-min Rain = 0
KBWS 221330Z 34005KT 04/02 A3016 RMK A01 T00350024  RH  094%=      5-min Rain = 0
KBWS 221335Z 34003KT 04/03 A3016 RMK A01 T00360025  RH  094%=      5-min Rain = 0
KBWS 221340Z 35004KT 04/03 A3016 RMK A01 T00360025  RH  094%=      5-min Rain = 0
KBWS 221345Z 34005KT 04/03 A3017 RMK A01 T00360025  RH  094%=      5-min Rain = 0
KBWS 221350Z 34005KT 04/02 A3017 RMK A01 T00360024  RH  094%=      5-min Rain = 0
KBWS 221355Z 34005KT 04/03 A3017 RMK A01 T00360025  RH  094%=      5-min Rain = 0
KBWS 221400Z 33006KT 04/03 A3017 RMK A01 T00370026  RH  094%=      5-min Rain = 0
KBWS 221405Z 34005KT 04/03 A3017 RMK A01 T00370026  RH  094%=      5-min Rain = 0
KBWS 221410Z 35003KT 04/03 A3017 RMK A01 T00370025  RH  093%=      5-min Rain = 0
KBWS 221415Z 33005KT 04/02 A3017 RMK A01 T00380024  RH  092%=      5-min Rain = 0
KBWS 221420Z 33006KT 04/02 A3017 RMK A01 T00380023  RH  092%=      5-min Rain = 0
KBWS 221425Z 34006KT 04/02 A3017 RMK A01 T00380021  RH  090%=      5-min Rain = 0
KBWS 221430Z 34007KT 04/02 A3017 RMK A01 T00380022  RH  091%=      5-min Rain = 0
KBWS 221435Z 34006KT 04/02 A3017 RMK A01 T00380021  RH  090%=      5-min Rain = 0
KBWS 221440Z 34007KT 04/02 A3017 RMK A01 T00380022  RH  090%=      5-min Rain = 0
KBWS 221445Z 34005KT 04/02 A3017 RMK A01 T00390021  RH  089%=      5-min Rain = 0
KBWS 221450Z 33005KT 04/02 A3017 RMK A01 T00400022  RH  090%=      5-min Rain = 0
KBWS 221455Z 34007KT 04/02 A3017 RMK A01 T00400022  RH  089%=      5-min Rain = 0
KBWS 221500Z 34007KT 04/02 A3017 RMK A01 T00390020  RH  089%=      5-min Rain = 0
KBWS 221505Z 32008KT 04/02 A3017 RMK A01 T00400021  RH  089%=      5-min Rain = 0
KBWS 221510Z 33007KT 04/02 A3018 RMK A01 T00400020  RH  088%=      5-min Rain = 0
KBWS 221515Z 35006KT 04/02 A3018 RMK A01 T00400020  RH  088%=      5-min Rain = 0
KBWS 221520Z 33005KT 04/02 A3018 RMK A01 T00410022  RH  089%=      5-min Rain = 0
KBWS 221525Z 33006KT 04/02 A3018 RMK A01 T00410021  RH  088%=      5-min Rain = 0
KBWS 221530Z 34006KT 04/02 A3018 RMK A01 T00410020  RH  088%=      5-min Rain = 0
KBWS 221535Z 33005KT 04/02 A3018 RMK A01 T00420022  RH  088%=      5-min Rain = 0
KBWS 221540Z 32005KT 04/02 A3018 RMK A01 T00430022  RH  088%=      5-min Rain = 0
KBWS 221545Z 32004KT 04/02 A3019 RMK A01 T00430020  RH  087%=      5-min Rain = 0
KBWS 221550Z 31007KT 04/02 A3019 RMK A01 T00440022  RH  087%=      5-min Rain = 0
KBWS 221555Z 31006KT 04/02 A3019 RMK A01 T00440021  RH  087%=      5-min Rain = 0
KBWS 221600Z 32005KT 04/02 A3019 RMK A01 T00430019  RH  086%=      5-min Rain = 0
KBWS 221605Z 34003KT 04/02 A3019 RMK A01 T00420017  RH  085%=      5-min Rain = 0
KBWS 221610Z 35005KT 04/02 A3019 RMK A01 T00440019  RH  085%=      5-min Rain = 0
KBWS 221615Z 33006KT 05/02 A3019 RMK A01 T00450021  RH  086%=      5-min Rain = 0
KBWS 221620Z 33006KT 04/02 A3019 RMK A01 T00440020  RH  085%=      5-min Rain = 0
KBWS 221625Z 33006G11KT 04/02 A3019 RMK A01 T00440018  RH  085%=      5-min Rain = 0
KBWS 221630Z 29006KT 05/02 A3019 RMK A01 T00460021  RH  085%=      5-min Rain = 0
KBWS 221635Z 30006KT 05/02 A3019 RMK A01 T00470022  RH  085%=      5-min Rain = 0
KBWS 221640Z 29005KT 05/02 A3019 RMK A01 T00470023  RH  086%=      5-min Rain = 0
KBWS 221645Z 31004KT 05/02 A3019 RMK A01 T00470022  RH  085%=      5-min Rain = 0
KBWS 221650Z 30004KT 05/02 A3019 RMK A01 T00480022  RH  084%=      5-min Rain = 0
KBWS 221655Z 28004KT 05/02 A3019 RMK A01 T00490023  RH  085%=      5-min Rain = 0
KBWS 221700Z 29007KT 05/02 A3019 RMK A01 T00500024  RH  085%=      5-min Rain = 0
KBWS 221705Z 29006KT 05/02 A3019 RMK A01 T00490024  RH  085%=      5-min Rain = 0
KBWS 221710Z 29006KT 05/02 A3019 RMK A01 T00490024  RH  085%=      5-min Rain = 0
KBWS 221715Z 30004KT 05/02 A3018 RMK A01 T00500024  RH  085%=      5-min Rain = 0
KBWS 221720Z 29003KT 05/03 A3018 RMK A01 T00510025  RH  085%=      5-min Rain = 0
KBWS 221725Z 27005KT 05/03 A3017 RMK A01 T00520025  RH  084%=      5-min Rain = 0
KBWS 221730Z 28005KT 05/03 A3017 RMK A01 T00530026  RH  084%=      5-min Rain = 0
KBWS 221735Z 28005KT 05/03 A3017 RMK A01 T00530025  RH  084%=      5-min Rain = 0
KBWS 221740Z 26008KT 06/03 A3017 RMK A01 T00560028  RH  084%=      5-min Rain = 0
KBWS 221745Z 26007KT 06/03 A3016 RMK A01 T00550026  RH  083%=      5-min Rain = 0
KBWS 221750Z 28006KT 06/03 A3016 RMK A01 T00560027  RH  083%=      5-min Rain = 0
KBWS 221755Z 28007KT 06/03 A3016 RMK A01 T00570027  RH  082%=      5-min Rain = 0
KBWS 221800Z 27006KT 06/03 A3016 RMK A01 T00590027  RH  081%=      5-min Rain = 0
KBWS 221805Z 26005KT 06/03 A3015 RMK A01 T00630027  RH  079%=      5-min Rain = 0
KBWS 221810Z 28007KT 06/03 A3015 RMK A01 T00640028  RH  079%=      5-min Rain = 0
KBWS 221815Z 28007KT 06/03 A3014 RMK A01 T00620026  RH  079%=      5-min Rain = 0
KBWS 221820Z 26006KT 07/03 A3014 RMK A01 T00660029  RH  079%=      5-min Rain = 0
KBWS 221825Z 28007KT 07/03 A3014 RMK A01 T00660029  RH  078%=      5-min Rain = 0
KBWS 221830Z 26007KT 07/03 A3013 RMK A01 T00680030  RH  078%=      5-min Rain = 0
KBWS 221835Z 26007KT 07/03 A3013 RMK A01 T00720031  RH  077%=      5-min Rain = 0
KBWS 221840Z 27007KT 07/03 A3012 RMK A01 T00740032  RH  076%=      5-min Rain = 0
KBWS 221845Z 25008KT 08/03 A3012 RMK A01 T00780034  RH  075%=      5-min Rain = 0
KBWS 221850Z 25006KT 08/04 A3011 RMK A01 T00830036  RH  074%=      5-min Rain = 0
KBWS 221855Z 27006KT 09/04 A3011 RMK A01 T00850035  RH  072%=      5-min Rain = 0
KBWS 221900Z 27007KT 09/04 A3011 RMK A01 T00870037  RH  072%=      5-min Rain = 0
KBWS 221905Z 26009KT 09/04 A301 RMK A01 T00880038  RH  072%=      5-min Rain = 0
KBWS 221910Z 26010KT 09/04 A301 RMK A01 T00890038  RH  072%=      5-min Rain = 0
KBWS 221915Z 26010KT 10/04 A301 RMK A01 T00960041  RH  070%=      5-min Rain = 0
KBWS 221920Z 27010KT 10/04 A3009 RMK A01 T00990042  RH  069%=      5-min Rain = 0
KBWS 221925Z 27011G16KT 10/04 A3009 RMK A01 T00990040  RH  068%=      5-min Rain = 0
KBWS 221930Z 27008KT 10/04 A3008 RMK A01 T01020043  RH  068%=      5-min Rain = 0
KBWS 221935Z 27009KT 10/04 A3008 RMK A01 T01010041  RH  068%=      5-min Rain = 0
KBWS 221940Z 27009KT 10/04 A3008 RMK A01 T01030041  RH  067%=      5-min Rain = 0
KBWS 221945Z 26007G12KT 11/04 A3008 RMK A01 T01060044  RH  067%=      5-min Rain = 0
KBWS 221950Z 24010KT 11/04 A3007 RMK A01 T01070041  RH  065%=      5-min Rain = 0
KBWS 221955Z 25009KT 11/04 A3007 RMK A01 T01080044  RH  066%=      5-min Rain = 0
KBWS 222000Z 25008KT 11/04 A3007 RMK A01 T01090044  RH  065%=      5-min Rain = 0
KBWS 222005Z 24008KT 11/04 A3007 RMK A01 T01080042  RH  065%=      5-min Rain = 0
KBWS 222010Z 25010KT 11/04 A3007 RMK A01 T01090044  RH  065%=      5-min Rain = 0
KBWS 222015Z 25009G15KT 11/04 A3007 RMK A01 T01090043  RH  065%=      5-min Rain = 0
KBWS 222020Z 26010KT 11/04 A3006 RMK A01 T01130044  RH  064%=      5-min Rain = 0
KBWS 222025Z 25009G14KT 11/05 A3006 RMK A01 T01120045  RH  064%=      5-min Rain = 0
KBWS 222030Z 24010KT 11/04 A3006 RMK A01 T01120044  RH  064%=      5-min Rain = 0
KBWS 222035Z 24008KT 11/05 A3006 RMK A01 T01140045  RH  064%=      5-min Rain = 0
KBWS 222040Z 24008KT 11/04 A3006 RMK A01 T01140043  RH  063%=      5-min Rain = 0
KBWS 222045Z 25008KT 12/05 A3005 RMK A01 T01160045  RH  063%=      5-min Rain = 0
KBWS 222050Z 25009KT 12/04 A3005 RMK A01 T01160044  RH  062%=      5-min Rain = 0
KBWS 222055Z 26007KT 12/04 A3005 RMK A01 T01150042  RH  062%=      5-min Rain = 0
KBWS 222100Z 26007G13KT 12/04 A3005 RMK A01 T01160043  RH  062%=      5-min Rain = 0
KBWS 222105Z 23008KT 12/04 A3005 RMK A01 T01160042  RH  062%=      5-min Rain = 0
KBWS 222110Z 24009KT 12/04 A3005 RMK A01 T01160043  RH  062%=      5-min Rain = 0
KBWS 222115Z 26008KT 12/04 A3005 RMK A01 T01190044  RH  061%=      5-min Rain = 0
KBWS 222120Z 25007KT 12/04 A3004 RMK A01 T01160042  RH  061%=      5-min Rain = 0
KBWS 222125Z 25006G11KT 12/04 A3004 RMK A01 T01200044  RH  061%=      5-min Rain = 0
KBWS 222130Z 24008KT 12/04 A3004 RMK A01 T01200043  RH  060%=      5-min Rain = 0
KBWS 222135Z 24009KT 12/04 A3004 RMK A01 T01190043  RH  061%=      5-min Rain = 0
KBWS 222140Z 22007KT 12/04 A3004 RMK A01 T01170043  RH  062%=      5-min Rain = 0
KBWS 222145Z 24005KT 12/05 A3004 RMK A01 T01220045  RH  060%=      5-min Rain = 0
KBWS 222150Z 25007KT 12/04 A3004 RMK A01 T01220042  RH  059%=      5-min Rain = 0
KBWS 222155Z 24007KT 12/04 A3004 RMK A01 T01220042  RH  060%=      5-min Rain = 0
KBWS 222200Z 25008KT 12/04 A3004 RMK A01 T01200042  RH  060%=      5-min Rain = 0
KBWS 222205Z 23005KT 12/04 A3003 RMK A01 T01220044  RH  060%=      5-min Rain = 0
KBWS 222210Z 26006KT 12/04 A3003 RMK A01 T01240044  RH  059%=      5-min Rain = 0
KBWS 222215Z 25006KT 12/04 A3003 RMK A01 T01240044  RH  059%=      5-min Rain = 0
KBWS 222220Z 25007KT 12/04 A3003 RMK A01 T01220040  RH  059%=      5-min Rain = 0
KBWS 222225Z 26006KT 12/04 A3003 RMK A01 T01210040  RH  059%=      5-min Rain = 0
KBWS 222230Z 24006KT 12/04 A3003 RMK A01 T01220042  RH  059%=      5-min Rain = 0
KBWS 222235Z 24006KT 12/04 A3003 RMK A01 T01220043  RH  059%=      5-min Rain = 0
KBWS 222240Z 25007KT 12/04 A3003 RMK A01 T01210042  RH  060%=      5-min Rain = 0
KBWS 222245Z 25006KT 12/04 A3003 RMK A01 T01200042  RH  060%=      5-min Rain = 0
KBWS 222250Z 25005KT 12/04 A3003 RMK A01 T01210043  RH  060%=      5-min Rain = 0
KBWS 222255Z 24006KT 12/04 A3003 RMK A01 T01200042  RH  060%=      5-min Rain = 0
KBWS 222300Z 24006KT 12/04 A3003 RMK A01 T01190042  RH  060%=      5-min Rain = 0
KBWS 222305Z 24005KT 12/04 A3003 RMK A01 T01180043  RH  061%=      5-min Rain = 0
KBWS 222310Z 24005KT 12/04 A3003 RMK A01 T01180043  RH  061%=      5-min Rain = 0
KBWS 222315Z 21004KT 12/05 A3003 RMK A01 T01170045  RH  063%=      5-min Rain = 0
KBWS 222320Z 21004KT 11/04 A3003 RMK A01 T01140043  RH  063%=      5-min Rain = 0
KBWS 222325Z 21004KT 11/04 A3003 RMK A01 T01120044  RH  064%=      5-min Rain = 0
KBWS 222330Z 21004KT 11/05 A3003 RMK A01 T01080045  RH  066%=      5-min Rain = 0
KBWS 222335Z 20004KT 11/05 A3003 RMK A01 T01050045  RH  068%=      5-min Rain = 0
KBWS 222340Z 20004KT 10/05 A3002 RMK A01 T01010045  RH  070%=      5-min Rain = 0
KBWS 222345Z 19004KT 10/05 A3002 RMK A01 T00970045  RH  071%=      5-min Rain = 0
KBWS 222350Z 19004KT 09/04 A3002 RMK A01 T00940043  RH  072%=      5-min Rain = 0
KBWS 222355Z 18004KT 09/04 A3002 RMK A01 T00880041  RH  074%=      5-min Rain = 0
KBWS 230000Z 18005KT 08/04 A3002 RMK A01 T00820041  RH  077%=      5-min Rain = 0
KBWS 230005Z 17005KT 08/04 A3002 RMK A01 T00770040  RH  079%=      5-min Rain = 0
KBWS 230010Z 17007KT 07/04 A3002 RMK A01 T00700039  RH  082%=      5-min Rain = 0
KBWS 230015Z 17007KT 07/04 A3002 RMK A01 T00680041  RH  084%=      5-min Rain = 0
KBWS 230020Z 17006KT 07/04 A3002 RMK A01 T00690043  RH  085%=      5-min Rain = 0
KBWS 230025Z 17006KT 07/04 A3002 RMK A01 T00690043  RH  085%=      5-min Rain = 0
KBWS 230030Z 17006KT 07/04 A3002 RMK A01 T00690042  RH  085%=      5-min Rain = 0
KBWS 230035Z 16007KT 07/04 A3002 RMK A01 T00670040  RH  085%=      5-min Rain = 0
KBWS 230040Z 17007KT 07/04 A3002 RMK A01 T00660041  RH  086%=      5-min Rain = 0
KBWS 230045Z 18007KT 07/04 A3002 RMK A01 T00680042  RH  085%=      5-min Rain = 0
KBWS 230050Z 17006KT 07/04 A3003 RMK A01 T00690042  RH  085%=      5-min Rain = 0
KBWS 230055Z 17007KT 07/04 A3003 RMK A01 T00710042  RH  084%=      5-min Rain = 0
KBWS 230100Z 17007KT 07/04 A3003 RMK A01 T00700043  RH  085%=      5-min Rain = 0
KBWS 230105Z 18007KT 07/04 A3003 RMK A01 T00700043  RH  084%=      5-min Rain = 0
KBWS 230110Z 17007KT 07/04 A3003 RMK A01 T00650040  RH  085%=      5-min Rain = 0
KBWS 230115Z 18007KT 07/04 A3003 RMK A01 T00650042  RH  087%=      5-min Rain = 0
KBWS 230120Z 18007KT 07/04 A3003 RMK A01 T00660042  RH  087%=      5-min Rain = 0
KBWS 230125Z 18007KT 07/04 A3003 RMK A01 T00660041  RH  086%=      5-min Rain = 0
KBWS 230130Z 18007KT 07/04 A3003 RMK A01 T00660041  RH  086%=      5-min Rain = 0
KBWS 230135Z 18007KT 07/04 A3003 RMK A01 T00660040  RH  085%=      5-min Rain = 0
KBWS 230140Z 18006KT 06/04 A3004 RMK A01 T00620038  RH  086%=      5-min Rain = 0
KBWS 230145Z 18005KT 06/04 A3004 RMK A01 T00620040  RH  088%=      5-min Rain = 0
KBWS 230150Z 18005KT 06/04 A3004 RMK A01 T00610039  RH  088%=      5-min Rain = 0
KBWS 230155Z 17006KT 06/04 A3004 RMK A01 T00590038  RH  088%=      5-min Rain = 0
KBWS 230200Z 18007KT 06/04 A3004 RMK A01 T00560035  RH  088%=      5-min Rain = 0
KBWS 230205Z 18005KT 05/04 A3004 RMK A01 T00540035  RH  089%=      5-min Rain = 0
KBWS 230210Z 19007KT 06/04 A3004 RMK A01 T00570040  RH  091%=      5-min Rain = 0
KBWS 230215Z 18008KT 06/05 A3004 RMK A01 T00640046  RH  090%=      5-min Rain = 0
KBWS 230220Z 18006KT 07/05 A3004 RMK A01 T00680048  RH  089%=      5-min Rain = 0
KBWS 230225Z 18007KT 07/05 A3004 RMK A01 T00710050  RH  088%=      5-min Rain = 0
KBWS 230230Z 17008KT 07/05 A3004 RMK A01 T00720050  RH  088%=      5-min Rain = 0
KBWS 230235Z 17008KT 07/05 A3005 RMK A01 T00730050  RH  087%=      5-min Rain = 0
KBWS 230240Z 17008KT 07/05 A3005 RMK A01 T00730050  RH  087%=      5-min Rain = 0
KBWS 230245Z 17007KT 07/05 A3005 RMK A01 T00720050  RH  088%=      5-min Rain = 0
KBWS 230250Z 18007KT 07/05 A3005 RMK A01 T00720051  RH  088%=      5-min Rain = 0
KBWS 230255Z 17007KT 07/05 A3005 RMK A01 T00710050  RH  089%=      5-min Rain = 0
KBWS 230300Z 17007KT 07/05 A3005 RMK A01 T00700050  RH  089%=      5-min Rain = 0
KBWS 230305Z 17006KT 07/05 A3006 RMK A01 T00700051  RH  090%=      5-min Rain = 0
KBWS 230310Z 17008KT 07/05 A3006 RMK A01 T00700051  RH  090%=      5-min Rain = 0
KBWS 230315Z 17010KT 07/05 A3006 RMK A01 T00700051  RH  090%=      5-min Rain = 0
KBWS 230320Z 17010KT 07/05 A3006 RMK A01 T00720052  RH  089%=      5-min Rain = 0
KBWS 230325Z 20007G12KT 07/05 A3006 RMK A01 T00720053  RH  089%=      5-min Rain = 0
KBWS 230330Z 19008KT 07/05 A3006 RMK A01 T00720053  RH  089%=      5-min Rain = 0
KBWS 230335Z 18007KT 07/05 A3006 RMK A01 T00730052  RH  089%=      5-min Rain = 0
KBWS 230340Z 17009KT 07/05 A3006 RMK A01 T00730052  RH  089%=      5-min Rain = 0
KBWS 230345Z 19008KT 07/05 A3007 RMK A01 T00710053  RH  090%=      5-min Rain = 0
KBWS 230350Z 18013KT 07/05 A3006 RMK A01 T00720053  RH  090%=      5-min Rain = 0
KBWS 230355Z 18014KT 07/05 A3006 RMK A01 T00720052  RH  089%=      5-min Rain = 0
KBWS 230400Z 18015KT 07/05 A3006 RMK A01 T00700052  RH  090%=      5-min Rain = 0
KBWS 230405Z 17012KT 07/05 A3006 RMK A01 T00700052  RH  091%=      5-min Rain = 0
KBWS 230410Z 17012KT 07/05 A3006 RMK A01 T00690052  RH  091%=      5-min Rain = 0
KBWS 230415Z 18009KT 07/05 A3007 RMK A01 T00680051  RH  091%=      5-min Rain = 0
KBWS 230420Z 19008KT 07/05 A3007 RMK A01 T00670050  RH  091%=      5-min Rain = 0
KBWS 230425Z 18008KT 07/05 A3007 RMK A01 T00650048  RH  091%=      5-min Rain = 0
KBWS 230430Z 18008KT 06/05 A3007 RMK A01 T00640047  RH  091%=      5-min Rain = 0
KBWS 230435Z 18008KT 06/05 A3007 RMK A01 T00640047  RH  091%=      5-min Rain = 0
KBWS 230440Z 18007KT 06/05 A3007 RMK A01 T00620045  RH  091%=      5-min Rain = 0
KBWS 230445Z 18006KT 06/04 A3007 RMK A01 T00590043  RH  091%=      5-min Rain = 0
KBWS 230450Z 18005KT 06/04 A3007 RMK A01 T00570042  RH  092%=      5-min Rain = 0
KBWS 230455Z 19003KT 06/04 A3008 RMK A01 T00550041  RH  092%=      5-min Rain = 0
KBWS 230500Z 27002KT 06/04 A3008 RMK A01 T00550041  RH  093%=      5-min Rain = 0
KBWS 230505Z 19006KT 06/04 A3008 RMK A01 T00570043  RH  093%=      5-min Rain = 0
KBWS 230510Z 19006KT 06/04 A3008 RMK A01 T00560041  RH  092%=      5-min Rain = 0
KBWS 230515Z 20005KT 05/04 A3007 RMK A01 T00520038  RH  092%=      5-min Rain = 0
KBWS 230520Z 20005KT 05/04 A3007 RMK A01 T00510037  RH  093%=      5-min Rain = 0
KBWS 230525Z 21004KT 05/04 A3008 RMK A01 T00480035  RH  093%=      5-min Rain = 0
KBWS 230530Z 20005KT 05/04 A3007 RMK A01 T00470035  RH  094%=      5-min Rain = 0
KBWS 230535Z 20005KT 04/03 A3008 RMK A01 T00440033  RH  094%=      5-min Rain = 0.01
KBWS 230540Z 20006KT 04/03 A3008 RMK A01 T00430032  RH  095%=      5-min Rain = 0
KBWS 230545Z 20007KT 04/03 A3007 RMK A01 T00430033  RH  095%=      5-min Rain = 0
KBWS 230550Z 20007KT 04/03 A3007 RMK A01 T00410032  RH  095%=      5-min Rain = 0
KBWS 230555Z 20007KT 04/03 A3007 RMK A01 T00410032  RH  096%=      5-min Rain = 0

Page generated in 0.0344 seconds.